Time;durP1;ratioP1;P1;durP2;ratioP2;P2;SDS_P1;SDS_P2;PMS_P1;PMS_P2;Temp;Humidity;BMP_temperature;BMP_pressure;BME280_temperature;BME280_humidity;BME280_pressure;Samples;Min_cycle;Max_cycle;Signal;HPM_P1;HPM_P2
2023/04/06 00:01:49;;;;;;;12.00;8.20;;;0.30;67.60;;;;;;5074361;28;20049;-76
2023/04/06 00:04:16;;;;;;;15.43;9.30;;;0.30;67.60;;;;;;5053391;28;20060;-76
2023/04/06 00:06:42;;;;;;;14.90;8.93;;;0.30;67.80;;;;;;5076246;28;20047;-75
2023/04/06 00:09:07;;;;;;;12.90;8.47;;;0.30;67.80;;;;;;5073297;28;20050;-76
2023/04/06 00:11:33;;;;;;;13.33;8.63;;;0.30;67.80;;;;;;5091143;28;20067;-76
2023/04/06 00:14:00;;;;;;;12.77;9.33;;;0.30;67.90;;;;;;5054116;28;20036;-76
2023/04/06 00:16:25;;;;;;;13.20;8.47;;;0.20;67.90;;;;;;5059547;28;20572;-76
2023/04/06 00:18:51;;;;;;;14.77;8.93;;;0.20;67.90;;;;;;5087021;28;20100;-76
2023/04/06 00:21:17;;;;;;;12.47;8.70;;;0.20;67.90;;;;;;5054282;28;20113;-76
2023/04/06 00:23:42;;;;;;;12.37;8.43;;;0.20;68.00;;;;;;5035701;28;20078;-76
2023/04/06 00:26:10;;;;;;;12.63;8.73;;;0.10;68.00;;;;;;5037308;28;20090;-75
2023/04/06 00:28:37;;;;;;;12.97;9.77;;;0.10;68.10;;;;;;5042299;28;20541;-77
2023/04/06 00:31:02;;;;;;;15.67;9.60;;;0.10;68.20;;;;;;5074549;28;20101;-76
2023/04/06 00:33:28;;;;;;;15.07;9.70;;;0.00;68.20;;;;;;5049726;28;20044;-76
2023/04/06 00:35:54;;;;;;;14.07;9.50;;;0.10;68.20;;;;;;5054706;28;20044;-76
2023/04/06 00:38:20;;;;;;;13.10;8.90;;;0.00;68.30;;;;;;5025497;28;20081;-76
2023/04/06 00:40:46;;;;;;;11.70;9.33;;;0.00;68.30;;;;;;5046965;28;20056;-77
2023/04/06 00:43:12;;;;;;;13.73;9.53;;;0.00;68.30;;;;;;5066719;28;20054;-76
2023/04/06 00:45:39;;;;;;;16.47;9.37;;;0.00;68.40;;;;;;5058448;28;20456;-77
2023/04/06 00:48:06;;;;;;;14.47;10.00;;;0.00;68.30;;;;;;5035991;28;20048;-76
2023/04/06 00:50:32;;;;;;;13.67;9.73;;;0.00;68.40;;;;;;5065376;28;20048;-76
2023/04/06 00:52:58;;;;;;;14.83;9.83;;;0.00;68.40;;;;;;5079766;28;20045;-76
2023/04/06 00:55:24;;;;;;;18.10;9.70;;;0.00;68.40;;;;;;5074739;28;20052;-76
2023/04/06 00:57:50;;;;;;;12.83;9.97;;;0.00;68.70;;;;;;5076533;28;20544;-76
2023/04/06 01:00:17;;;;;;;19.73;10.03;;;-0.10;68.80;;;;;;5074302;28;20047;-77
2023/04/06 01:02:44;;;;;;;12.50;9.80;;;-0.10;68.80;;;;;;5060595;28;20115;-77
2023/04/06 01:05:10;;;;;;;16.07;10.20;;;-0.10;68.60;;;;;;5076222;28;20083;-76
2023/04/06 01:07:36;;;;;;;13.73;9.57;;;-0.10;68.70;;;;;;5056665;28;20311;-77
2023/04/06 01:10:02;;;;;;;15.83;9.90;;;-0.10;68.60;;;;;;5076661;28;20044;-77
2023/04/06 01:12:28;;;;;;;17.93;10.50;;;-0.10;68.60;;;;;;5077246;28;20039;-77
2023/04/06 01:14:54;;;;;;;13.87;10.50;;;-0.10;68.60;;;;;;5078975;28;20047;-76
2023/04/06 01:17:20;;;;;;;15.33;10.30;;;-0.20;68.50;;;;;;5063237;27;20452;-77
2023/04/06 01:19:47;;;;;;;18.27;10.93;;;-0.20;68.70;;;;;;5077625;28;20050;-77
2023/04/06 01:22:16;;;;;;;15.07;10.97;;;-0.20;68.70;;;;;;5077600;28;20048;-77
2023/04/06 01:24:42;;;;;;;15.33;10.53;;;-0.20;68.70;;;;;;5078472;28;20147;-76
2023/04/06 01:27:07;;;;;;;16.10;10.47;;;-0.20;68.70;;;;;;5060584;28;20556;-77
2023/04/06 01:29:33;;;;;;;16.43;10.37;;;-0.10;68.70;;;;;;5094475;28;20044;-77
2023/04/06 01:31:59;;;;;;;15.97;10.67;;;-0.10;68.70;;;;;;5069853;28;20059;-77
2023/04/06 01:34:25;;;;;;;13.40;10.10;;;-0.10;68.60;;;;;;5047537;28;20413;-77
2023/04/06 01:36:50;;;;;;;16.10;10.67;;;-0.10;68.80;;;;;;5062130;28;20089;-77
2023/04/06 01:39:16;;;;;;;14.83;10.50;;;-0.10;69.00;;;;;;5075988;28;20196;-77
2023/04/06 01:41:42;;;;;;;16.50;11.03;;;-0.10;69.00;;;;;;5076788;28;20047;-77
2023/04/06 01:44:08;;;;;;;14.27;10.57;;;-0.10;68.90;;;;;;5064583;28;20059;-77
2023/04/06 01:46:34;;;;;;;18.47;11.53;;;-0.20;69.10;;;;;;5034440;28;20394;-77
2023/04/06 01:49:00;;;;;;;17.20;11.07;;;-0.20;69.00;;;;;;5056028;28;20278;-77
2023/04/06 01:51:26;;;;;;;17.80;10.43;;;-0.20;68.90;;;;;;5087344;28;20047;-77
2023/04/06 01:53:52;;;;;;;15.63;10.47;;;-0.20;68.90;;;;;;5074911;28;20059;-77
2023/04/06 01:56:18;;;;;;;17.60;10.90;;;-0.30;69.00;;;;;;5065350;28;20049;-77
2023/04/06 01:58:44;;;;;;;15.07;10.60;;;-0.30;69.10;;;;;;5037078;28;20110;-77
2023/04/06 02:01:10;;;;;;;17.90;11.37;;;-0.30;69.00;;;;;;5090277;28;20051;-77
2023/04/06 02:03:35;;;;;;;16.30;10.20;;;-0.40;69.10;;;;;;5068451;28;20056;-77
2023/04/06 02:06:01;;;;;;;13.50;9.57;;;-0.40;69.10;;;;;;5066794;28;20055;-77
2023/04/06 02:08:27;;;;;;;16.77;10.90;;;-0.40;69.00;;;;;;5059704;28;20581;-77
2023/04/06 02:10:53;;;;;;;14.60;10.67;;;-0.30;69.00;;;;;;5056062;28;20117;-77
2023/04/06 02:13:19;;;;;;;17.80;11.13;;;-0.40;69.00;;;;;;5074448;28;20046;-77
2023/04/06 02:15:45;;;;;;;15.43;10.63;;;-0.40;69.00;;;;;;5076525;28;20039;-77
2023/04/06 02:18:10;;;;;;;14.87;10.83;;;-0.40;69.00;;;;;;5073645;27;20096;-77
2023/04/06 02:20:36;;;;;;;16.47;10.30;;;-0.40;69.10;;;;;;5040274;28;20127;-77
2023/04/06 02:23:02;;;;;;;14.50;10.83;;;-0.50;69.00;;;;;;5075107;28;20044;-78
2023/04/06 02:25:28;;;;;;;15.47;10.27;;;-0.50;69.00;;;;;;5074143;28;20405;-77
2023/04/06 02:27:54;;;;;;;18.30;10.53;;;-0.50;68.90;;;;;;5042482;28;20581;-77
2023/04/06 02:30:19;;;;;;;14.03;10.30;;;-0.60;69.00;;;;;;5075925;28;20142;-77
2023/04/06 02:32:45;;;;;;;12.93;9.37;;;-0.60;68.90;;;;;;5080430;28;20138;-77
2023/04/06 02:35:11;;;;;;;16.57;9.93;;;-0.60;68.90;;;;;;5077628;28;20094;-77
2023/04/06 02:37:37;;;;;;;15.27;9.80;;;-0.50;69.00;;;;;;5039683;28;20106;-77
2023/04/06 02:40:03;;;;;;;17.57;10.20;;;-0.50;68.90;;;;;;5042330;28;20056;-77
2023/04/06 02:42:29;;;;;;;18.40;9.80;;;-0.50;68.80;;;;;;5062235;28;20048;-77
2023/04/06 02:44:54;;;;;;;13.40;9.57;;;-0.50;68.70;;;;;;5075713;28;20127;-77
2023/04/06 02:47:20;;;;;;;14.00;9.40;;;-0.50;68.70;;;;;;5040969;28;20140;-77
2023/04/06 02:49:46;;;;;;;15.33;10.07;;;-0.60;68.60;;;;;;5075444;28;20515;-77
2023/04/06 02:52:12;;;;;;;17.40;10.60;;;-0.60;68.70;;;;;;5057390;28;20039;-77
2023/04/06 02:54:37;;;;;;;15.23;10.73;;;-0.70;68.90;;;;;;5055757;28;20374;-78
2023/04/06 02:57:03;;;;;;;14.70;10.30;;;-0.70;68.90;;;;;;5050136;28;20051;-77
2023/04/06 02:59:29;;;;;;;17.73;11.30;;;-0.70;69.00;;;;;;5089199;28;20120;-77
2023/04/06 03:01:55;;;;;;;15.73;10.60;;;-0.70;69.00;;;;;;5072394;28;20390;-77
2023/04/06 03:04:22;;;;;;;15.67;10.20;;;-0.70;69.10;;;;;;5056108;28;20101;-76
2023/04/06 03:06:48;;;;;;;16.90;10.50;;;-0.70;69.00;;;;;;5053052;28;20113;-77
2023/04/06 03:09:14;;;;;;;15.40;10.43;;;-0.70;69.00;;;;;;5055530;28;20044;-77
2023/04/06 03:11:40;;;;;;;13.63;10.73;;;-0.80;69.10;;;;;;5089807;28;20062;-77
2023/04/06 03:14:05;;;;;;;14.80;11.07;;;-0.80;69.10;;;;;;5071667;28;20404;-77
2023/04/06 03:16:31;;;;;;;16.03;11.23;;;-0.90;69.10;;;;;;5058883;28;20113;-77
2023/04/06 03:18:57;;;;;;;18.20;11.47;;;-1.00;69.20;;;;;;5053870;28;20410;-77
2023/04/06 03:21:22;;;;;;;15.87;11.10;;;-1.00;69.30;;;;;;5072916;28;20059;-77
2023/04/06 03:23:51;;;;;;;17.67;11.43;;;-1.00;69.50;;;;;;5071930;28;20067;-77
2023/04/06 03:26:17;;;;;;;16.93;11.53;;;-1.00;69.40;;;;;;5046992;28;20600;-77
2023/04/06 03:28:43;;;;;;;17.43;10.87;;;-1.00;69.50;;;;;;5050279;28;20044;-77
2023/04/06 03:31:08;;;;;;;16.50;10.73;;;-1.00;69.50;;;;;;5072584;28;20047;-77
2023/04/06 03:33:34;;;;;;;16.73;11.47;;;-1.00;69.50;;;;;;5080419;28;20075;-77
2023/04/06 03:36:00;;;;;;;15.63;11.03;;;-0.90;69.50;;;;;;5040923;28;20040;-77
2023/04/06 03:38:26;;;;;;;18.63;12.17;;;-0.90;69.50;;;;;;5073575;28;20050;-77
2023/04/06 03:40:51;;;;;;;18.07;12.60;;;-0.90;69.40;;;;;;5089773;28;20133;-78
2023/04/06 03:43:17;;;;;;;16.40;11.50;;;-0.90;69.60;;;;;;5068461;28;20466;-77
2023/04/06 03:45:43;;;;;;;20.40;12.03;;;-0.90;69.50;;;;;;5080831;28;20544;-77
2023/04/06 03:48:09;;;;;;;18.53;12.10;;;-0.90;69.50;;;;;;5049041;28;20044;-78
2023/04/06 03:50:34;;;;;;;20.23;11.77;;;-1.00;69.60;;;;;;5055620;28;20066;-78
2023/04/06 03:53:02;;;;;;;17.97;11.40;;;-1.00;69.50;;;;;;5054055;28;20040;-78
2023/04/06 03:55:28;;;;;;;17.13;11.53;;;-1.00;69.50;;;;;;5061792;28;20048;-78
2023/04/06 03:57:54;;;;;;;16.87;11.70;;;-1.00;69.60;;;;;;5046230;28;20178;-78
2023/04/06 04:00:20;;;;;;;17.40;11.97;;;-0.90;69.60;;;;;;5053020;28;20185;-78
2023/04/06 04:02:46;;;;;;;19.20;12.30;;;-0.90;69.60;;;;;;5062726;28;20128;-78
2023/04/06 04:05:11;;;;;;;16.30;11.37;;;-0.90;69.50;;;;;;5051979;28;20052;-78
2023/04/06 04:07:37;;;;;;;17.53;11.67;;;-0.90;69.40;;;;;;5035201;28;20070;-77
2023/04/06 04:10:03;;;;;;;15.53;10.57;;;-0.90;69.40;;;;;;5088446;28;20051;-78
2023/04/06 04:12:29;;;;;;;14.67;10.70;;;-0.90;69.20;;;;;;5090956;28;20044;-78
2023/04/06 04:14:55;;;;;;;18.63;11.70;;;-0.90;69.20;;;;;;5059978;28;20078;-78
2023/04/06 04:17:22;;;;;;;17.57;11.60;;;-1.00;69.20;;;;;;5041760;28;20040;-78
2023/04/06 04:19:47;;;;;;;14.23;10.40;;;-1.00;69.10;;;;;;5066208;28;20039;-78
2023/04/06 04:22:13;;;;;;;13.10;9.60;;;-1.00;69.10;;;;;;5064106;28;20050;-78
2023/04/06 04:24:39;;;;;;;16.23;11.00;;;-1.10;69.10;;;;;;5090574;28;20074;-78
2023/04/06 04:27:05;;;;;;;16.00;11.17;;;-1.00;69.00;;;;;;5059135;28;20143;-78
2023/04/06 04:29:30;;;;;;;16.33;10.40;;;-1.10;69.10;;;;;;5090941;28;20054;-78
2023/04/06 04:31:56;;;;;;;15.67;10.70;;;-1.10;69.00;;;;;;5045282;28;20045;-78
2023/04/06 04:34:25;;;;;;;19.90;10.80;;;-1.10;69.00;;;;;;5091003;28;20126;-78
2023/04/06 04:36:52;;;;;;;20.80;12.17;;;-1.10;69.00;;;;;;5024513;28;20056;-78
2023/04/06 04:39:18;;;;;;;15.13;10.97;;;-1.10;69.10;;;;;;5073015;28;20055;-78
2023/04/06 04:41:43;;;;;;;18.27;11.33;;;-1.10;68.80;;;;;;5076458;28;20043;-79
2023/04/06 04:44:09;;;;;;;15.47;10.47;;;-1.10;68.80;;;;;;5053264;28;20056;-78
2023/04/06 04:46:35;;;;;;;14.80;10.63;;;-1.10;68.90;;;;;;5044688;28;20055;-77
2023/04/06 04:49:01;;;;;;;15.97;11.30;;;-1.10;69.00;;;;;;5074009;28;20057;-78
2023/04/06 04:51:26;;;;;;;16.53;10.03;;;-1.10;69.10;;;;;;5065200;28;20051;-78
2023/04/06 04:53:52;;;;;;;16.90;10.67;;;-1.10;69.10;;;;;;5065286;28;20067;-78
2023/04/06 04:56:18;;;;;;;23.43;11.50;;;-1.10;68.90;;;;;;5066171;28;20054;-78
2023/04/06 04:58:43;;;;;;;15.70;10.60;;;-1.10;68.80;;;;;;5053386;28;20058;-78
2023/04/06 05:01:09;;;;;;;14.73;10.60;;;-1.10;68.90;;;;;;5076683;28;20109;-78
2023/04/06 05:03:38;;;;;;;15.60;11.10;;;-1.20;68.90;;;;;;5068430;28;20118;-78
2023/04/06 05:06:05;;;;;;;17.47;11.07;;;-1.20;69.10;;;;;;5090509;28;20058;-78
2023/04/06 05:08:31;;;;;;;17.67;10.40;;;-1.20;69.20;;;;;;5057690;28;20048;-78
2023/04/06 05:10:57;;;;;;;15.17;11.13;;;-1.20;69.10;;;;;;5043367;28;20050;-78
2023/04/06 05:13:23;;;;;;;15.83;10.30;;;-1.20;69.10;;;;;;5067719;28;20051;-78
2023/04/06 05:15:49;;;;;;;13.97;10.57;;;-1.10;69.00;;;;;;5074686;28;20046;-78
2023/04/06 05:18:15;;;;;;;16.67;10.83;;;-1.10;68.90;;;;;;5052275;28;20097;-77
2023/04/06 05:20:42;;;;;;;17.10;10.50;;;-1.10;68.80;;;;;;5058581;28;20085;-78
2023/04/06 05:23:08;;;;;;;18.17;10.73;;;-1.10;68.90;;;;;;5072845;28;20047;-78
2023/04/06 05:25:33;;;;;;;16.33;10.43;;;-1.10;69.00;;;;;;5063226;28;20063;-78
2023/04/06 05:28:00;;;;;;;16.57;10.80;;;-1.00;69.00;;;;;;5038056;28;20872;-78
2023/04/06 05:30:26;;;;;;;19.53;10.53;;;-1.00;69.00;;;;;;5084425;28;20048;-78
2023/04/06 05:32:51;;;;;;;15.10;11.13;;;-1.00;69.10;;;;;;5064359;28;20051;-78
2023/04/06 05:35:17;;;;;;;13.20;9.80;;;-0.90;69.00;;;;;;5086646;28;20512;-78
2023/04/06 05:37:43;;;;;;;17.30;11.27;;;-0.90;69.20;;;;;;5046430;28;20044;-78
2023/04/06 05:40:09;;;;;;;15.03;10.50;;;-0.90;69.00;;;;;;5084288;28;20499;-78
2023/04/06 05:42:42;;;;;;;17.40;10.80;;;-0.70;69.10;;;;;;5075424;28;20044;-78
2023/04/06 05:45:10;;;;;;;16.70;10.63;;;-0.70;69.00;;;;;;5086155;28;20566;-79
2023/04/06 05:47:37;;;;;;;16.53;9.97;;;-0.70;69.10;;;;;;5057590;28;20048;-78
2023/04/06 05:50:04;;;;;;;14.73;10.50;;;-0.60;69.10;;;;;;5053961;28;20569;-78
2023/04/06 05:52:30;;;;;;;15.73;11.00;;;-0.50;69.00;;;;;;5075473;28;20055;-78
2023/04/06 05:54:55;;;;;;;18.83;10.77;;;-0.40;69.00;;;;;;5054499;28;20142;-78
2023/04/06 05:57:21;;;;;;;16.83;10.83;;;-0.30;69.00;;;;;;5038808;28;20101;-78
2023/04/06 05:59:47;;;;;;;16.97;11.47;;;-0.20;69.30;;;;;;5072239;28;20060;-77
2023/04/06 06:02:13;;;;;;;17.07;11.47;;;-0.10;69.30;;;;;;5056346;28;20130;-78
2023/04/06 06:04:39;;;;;;;15.70;11.17;;;0.00;69.50;;;;;;5068651;28;20059;-78
2023/04/06 06:07:05;;;;;;;14.47;11.20;;;0.20;69.20;;;;;;5054299;28;20061;-77
2023/04/06 06:09:31;;;;;;;15.97;11.17;;;0.40;69.10;;;;;;5087668;28;20109;-78
2023/04/06 06:11:56;;;;;;;15.90;10.57;;;0.60;69.40;;;;;;5082149;28;20549;-78
2023/04/06 06:14:22;;;;;;;15.53;10.77;;;0.80;69.30;;;;;;5056603;28;20050;-78
2023/04/06 06:16:48;;;;;;;16.97;10.43;;;1.00;69.20;;;;;;5044187;27;20075;-78
2023/04/06 06:19:14;;;;;;;16.10;11.23;;;1.20;69.10;;;;;;5081840;28;20494;-77
2023/04/06 06:21:40;;;;;;;16.77;11.07;;;1.50;68.80;;;;;;5067974;28;20139;-77
2023/04/06 06:24:06;;;;;;;15.57;10.97;;;1.60;68.60;;;;;;5067755;28;20118;-77
2023/04/06 06:26:32;;;;;;;18.37;10.77;;;1.80;68.70;;;;;;5067354;28;20048;-77
2023/04/06 06:28:58;;;;;;;20.20;10.93;;;1.90;68.30;;;;;;5094517;28;20052;-78
2023/04/06 06:31:24;;;;;;;17.43;11.43;;;1.90;68.20;;;;;;5052713;27;20039;-77
2023/04/06 06:33:51;;;;;;;14.67;10.70;;;2.00;68.40;;;;;;5070009;28;20047;-77
2023/04/06 06:36:20;;;;;;;14.97;11.43;;;2.00;68.40;;;;;;5040002;28;20047;-77
2023/04/06 06:38:45;;;;;;;15.33;11.20;;;2.10;68.40;;;;;;5080626;28;20067;-77
2023/04/06 06:41:11;;;;;;;16.97;10.63;;;2.20;68.40;;;;;;5070674;28;20043;-77
2023/04/06 06:43:37;;;;;;;14.17;10.47;;;2.40;68.30;;;;;;5061603;28;20455;-77
2023/04/06 06:46:03;;;;;;;16.13;11.00;;;2.50;68.10;;;;;;5066716;28;20431;-77
2023/04/06 06:48:29;;;;;;;14.70;10.07;;;2.60;67.90;;;;;;5029442;28;20450;-77
2023/04/06 06:50:56;;;;;;;15.50;10.23;;;2.70;67.60;;;;;;5073236;27;20051;-77
2023/04/06 06:53:22;;;;;;;13.33;11.10;;;2.90;67.30;;;;;;5081770;27;20065;-77
2023/04/06 06:55:51;;;;;;;17.23;10.90;;;3.00;67.20;;;;;;5060614;28;20046;-77
2023/04/06 06:58:19;;;;;;;14.77;10.50;;;3.10;67.20;;;;;;5045355;28;20054;-77
2023/04/06 07:00:45;;;;;;;18.93;10.27;;;3.20;66.90;;;;;;5064822;28;20446;-77
2023/04/06 07:03:11;;;;;;;13.47;10.13;;;3.30;66.50;;;;;;5092952;28;20159;-77
2023/04/06 07:05:37;;;;;;;13.27;10.20;;;3.50;66.20;;;;;;5066406;27;20057;-76
2023/04/06 07:08:03;;;;;;;20.07;10.37;;;3.70;66.10;;;;;;5060237;28;20158;-77
2023/04/06 07:10:29;;;;;;;15.87;9.53;;;3.90;65.60;;;;;;5061823;28;20085;-77
2023/04/06 07:12:55;;;;;;;14.53;10.37;;;4.10;65.20;;;;;;5071863;28;20052;-77
2023/04/06 07:15:20;;;;;;;15.57;9.63;;;4.30;64.70;;;;;;5075708;28;20114;-77
2023/04/06 07:17:46;;;;;;;12.37;9.70;;;4.40;64.20;;;;;;5031144;28;20071;-77
2023/04/06 07:20:13;;;;;;;15.03;10.00;;;4.50;63.60;;;;;;5058817;28;20528;-77
2023/04/06 07:22:40;;;;;;;15.93;10.70;;;4.50;63.70;;;;;;5083074;28;20560;-77
2023/04/06 07:25:06;;;;;;;16.23;10.13;;;4.70;63.80;;;;;;5064012;28;20079;-77
2023/04/06 07:27:32;;;;;;;15.17;10.13;;;4.70;62.60;;;;;;5052885;28;20082;-77
2023/04/06 07:29:57;;;;;;;12.53;8.90;;;4.70;62.90;;;;;;5096368;28;20054;-77
2023/04/06 07:32:23;;;;;;;17.37;10.20;;;4.80;63.00;;;;;;5068929;28;20048;-77
2023/04/06 07:34:49;;;;;;;15.33;10.50;;;4.90;62.50;;;;;;5060996;28;20047;-77
2023/04/06 07:37:15;;;;;;;13.63;9.20;;;5.00;62.70;;;;;;5030631;28;20059;-77
2023/04/06 07:39:41;;;;;;;15.50;10.50;;;5.10;62.50;;;;;;5072787;28;20426;-77
2023/04/06 07:42:06;;;;;;;16.77;11.23;;;5.30;62.00;;;;;;5075421;28;20059;-77
2023/04/06 07:44:32;;;;;;;12.77;9.87;;;5.30;62.30;;;;;;5084628;28;20085;-77
2023/04/06 07:46:58;;;;;;;16.23;10.67;;;5.50;62.00;;;;;;5029093;28;20043;-77
2023/04/06 07:49:24;;;;;;;19.33;10.60;;;5.70;62.20;;;;;;5039984;28;20133;-77
2023/04/06 07:51:49;;;;;;;14.27;10.13;;;6.10;62.30;;;;;;5060636;28;20079;-77
2023/04/06 07:54:15;;;;;;;14.57;10.20;;;6.60;61.50;;;;;;5088420;28;20413;-77
2023/04/06 07:56:41;;;;;;;14.43;9.73;;;7.00;60.90;;;;;;5054706;28;20125;-77
2023/04/06 07:59:07;;;;;;;15.30;10.40;;;7.10;60.30;;;;;;5057415;28;20059;-77
2023/04/06 08:01:32;;;;;;;13.77;10.43;;;7.00;60.10;;;;;;5095851;28;20055;-77
2023/04/06 08:03:58;;;;;;;11.17;9.00;;;7.00;60.20;;;;;;5094120;28;20478;-77
2023/04/06 08:06:25;;;;;;;17.57;9.83;;;7.20;59.40;;;;;;5034930;28;21988;-77
2023/04/06 08:08:50;;;;;;;14.37;10.27;;;7.50;59.80;;;;;;5058233;28;20055;-77
2023/04/06 08:11:16;;;;;;;15.37;10.23;;;7.80;59.00;;;;;;5078442;28;20429;-76
2023/04/06 08:13:42;;;;;;;16.50;10.23;;;7.70;58.70;;;;;;5078078;28;20126;-77
2023/04/06 08:16:07;;;;;;;13.03;10.10;;;7.60;59.50;;;;;;5055805;28;20667;-77
2023/04/06 08:18:33;;;;;;;13.23;9.77;;;7.80;59.70;;;;;;5066078;28;20067;-77
2023/04/06 08:20:59;;;;;;;12.00;9.23;;;8.00;59.00;;;;;;5056394;28;20052;-77
2023/04/06 08:23:25;;;;;;;15.30;9.60;;;8.10;58.50;;;;;;5045169;28;20073;-77
2023/04/06 08:25:53;;;;;;;14.37;10.07;;;8.20;58.70;;;;;;5050382;28;20089;-78
2023/04/06 08:28:20;;;;;;;15.20;10.13;;;8.50;59.00;;;;;;5047177;28;20105;-77
2023/04/06 08:30:46;;;;;;;14.53;9.50;;;8.80;58.40;;;;;;5070745;28;20085;-77
2023/04/06 08:33:12;;;;;;;15.93;9.97;;;9.30;56.50;;;;;;5045884;28;20130;-77
2023/04/06 08:35:37;;;;;;;15.70;9.33;;;9.40;57.30;;;;;;5096460;28;20055;-77
2023/04/06 08:38:03;;;;;;;12.53;8.90;;;9.60;56.60;;;;;;5028531;28;20059;-74
2023/04/06 08:40:29;;;;;;;12.87;9.63;;;9.60;56.10;;;;;;5078811;28;20056;-75
2023/04/06 08:42:56;;;;;;;15.10;9.30;;;9.50;55.80;;;;;;5053373;28;20078;-75
2023/04/06 08:45:22;;;;;;;11.83;9.17;;;9.50;55.70;;;;;;5031516;28;20138;-75
2023/04/06 08:47:51;;;;;;;13.53;9.30;;;9.80;55.70;;;;;;5045600;28;20075;-76
2023/04/06 08:50:18;;;;;;;15.07;9.50;;;10.20;55.80;;;;;;5073987;28;20126;-76
2023/04/06 08:52:46;;;;;;;13.90;9.87;;;10.30;55.20;;;;;;5082953;28;20107;-76
2023/04/06 08:55:12;;;;;;;13.87;10.43;;;10.20;55.30;;;;;;5082393;28;20074;-76
2023/04/06 08:57:38;;;;;;;12.80;8.83;;;10.10;56.20;;;;;;5078443;27;20131;-75
2023/04/06 09:00:06;;;;;;;14.17;9.90;;;10.30;55.20;;;;;;5119418;27;20500;-76
2023/04/06 09:02:32;;;;;;;11.43;9.07;;;10.40;55.20;;;;;;5088691;27;20039;-76
2023/04/06 09:05:00;;;;;;;12.47;8.90;;;10.50;54.80;;;;;;5083468;28;20132;-76
2023/04/06 09:07:26;;;;;;;14.57;10.07;;;10.50;54.50;;;;;;5068279;27;20129;-76
2023/04/06 09:09:52;;;;;;;13.80;9.50;;;10.40;55.00;;;;;;5097922;27;20059;-76
2023/04/06 09:12:29;;;;;;;14.40;9.47;;;10.40;54.80;;;;;;5052696;27;20046;-76
2023/04/06 09:14:56;;;;;;;12.03;9.47;;;10.30;53.40;;;;;;5084138;27;20051;-76
2023/04/06 09:17:28;;;;;;;13.00;9.30;;;10.20;54.30;;;;;;5080596;27;20701;-75
2023/04/06 09:19:55;;;;;;;14.18;9.27;;;10.10;55.00;;;;;;5113554;27;21026;-76
2023/04/06 09:22:21;;;;;;;15.27;10.00;;;10.20;55.50;;;;;;5071976;28;20124;-75
2023/04/06 09:24:50;;;;;;;14.37;9.73;;;10.10;55.20;;;;;;5101447;27;20077;-75
2023/04/06 09:27:16;;;;;;;13.87;10.50;;;10.00;54.70;;;;;;5083784;27;20051;-75
2023/04/06 09:29:43;;;;;;;16.57;10.23;;;9.80;54.60;;;;;;5066468;27;20113;-76
2023/04/06 09:32:10;;;;;;;14.03;10.37;;;9.80;55.00;;;;;;5052878;27;20825;-75
2023/04/06 09:34:38;;;;;;;16.13;10.37;;;9.80;55.50;;;;;;5100671;27;20051;-75
2023/04/06 09:37:15;;;;;;;17.23;11.63;;;9.80;55.10;;;;;;5085136;27;20480;-75
2023/04/06 09:39:41;;;;;;;17.00;12.03;;;9.80;54.20;;;;;;5101033;27;20505;-75
2023/04/06 09:42:06;;;;;;;15.80;10.70;;;9.70;55.30;;;;;;5100957;27;20057;-75
2023/04/06 09:44:32;;;;;;;17.73;11.70;;;9.80;55.00;;;;;;5080515;27;20070;-75
2023/04/06 09:46:58;;;;;;;19.37;11.47;;;9.80;55.30;;;;;;5027091;28;20050;-75
2023/04/06 09:49:27;;;;;;;17.60;12.50;;;9.90;55.40;;;;;;5064056;28;20112;-75
2023/04/06 09:52:14;;;;;;;17.63;11.07;;;10.00;55.80;;;;;;5081078;28;20162;-76
2023/04/06 09:54:41;;;;;;;20.27;12.87;;;10.00;54.90;;;;;;5082875;28;20057;-75
2023/04/06 09:57:11;;;;;;;17.53;12.07;;;10.10;55.20;;;;;;5070588;28;20054;-75
2023/04/06 09:59:55;;;;;;;22.83;13.73;;;10.10;55.00;;;;;;5081177;28;20409;-75
2023/04/06 10:02:29;;;;;;;21.77;13.43;;;10.20;54.60;;;;;;5080272;28;20059;-76
2023/04/06 10:05:22;;;;;;;19.20;12.93;;;10.30;54.70;;;;;;5079500;28;20051;-76
2023/04/06 10:07:51;;;;;;;20.03;13.70;;;10.30;53.60;;;;;;5082083;28;20074;-76
2023/04/06 10:10:17;;;;;;;18.87;13.63;;;10.40;54.00;;;;;;5080746;28;20709;-76
2023/04/06 10:12:44;;;;;;;23.47;13.43;;;10.60;53.90;;;;;;5079022;28;20150;-76
2023/04/06 10:15:10;;;;;;;24.27;13.67;;;10.70;53.90;;;;;;5097221;28;20048;-76
2023/04/06 10:17:36;;;;;;;22.40;14.27;;;10.80;53.60;;;;;;5046733;28;20767;-76
2023/04/06 10:20:23;;;;;;;20.33;13.27;;;10.80;53.10;;;;;;5062671;28;20056;-76
2023/04/06 10:23:01;;;;;;;21.23;13.70;;;10.90;52.50;;;;;;5063019;28;20087;-75
2023/04/06 10:25:31;;;;;;;19.17;13.13;;;11.10;53.60;;;;;;5080433;28;20540;-76
2023/04/06 10:28:07;;;;;;;20.83;13.83;;;11.50;53.30;;;;;;5062994;28;20525;-76
2023/04/06 10:30:43;;;;;;;22.90;14.90;;;11.90;52.70;;;;;;5097420;28;20059;-76
2023/04/06 10:33:16;;;;;;;23.97;15.07;;;12.10;52.00;;;;;;5097684;28;20105;-76
2023/04/06 10:35:41;;;;;;;22.23;15.27;;;12.20;52.10;;;;;;5080952;28;20047;-76
2023/04/06 10:38:07;;;;;;;23.90;17.13;;;12.30;52.70;;;;;;5082244;28;20055;-76
2023/04/06 10:40:37;;;;;;;26.95;16.80;;;12.40;52.70;;;;;;5078979;28;20533;-76
2023/04/06 10:43:13;;;;;;;22.15;14.77;;;12.50;52.00;;;;;;5079713;28;20087;-76
2023/04/06 10:45:40;;;;;;;21.10;15.40;;;12.60;50.70;;;;;;5080850;28;20135;-76
2023/04/06 10:48:19;;;;;;;26.38;17.25;;;12.50;52.70;;;;;;5062187;28;20074;-76
2023/04/06 10:50:49;;;;;;;22.88;15.77;;;12.30;50.70;;;;;;5078684;28;20409;-76
2023/04/06 10:53:23;;;;;;;23.77;16.55;;;12.10;52.90;;;;;;5078735;28;20081;-75
2023/04/06 10:55:51;;;;;;;23.42;17.27;;;12.00;52.00;;;;;;5098388;28;20055;-76
2023/04/06 10:58:16;;;;;;;25.02;18.15;;;12.00;53.00;;;;;;5045879;28;20494;-76
2023/04/06 11:00:47;;;;;;;25.00;18.13;;;12.00;52.80;;;;;;5098190;28;20039;-76
2023/04/06 11:03:13;;;;;;;29.00;20.38;;;12.30;53.30;;;;;;5096457;28;20047;-76
2023/04/06 11:05:42;;;;;;;29.20;20.00;;;12.50;52.80;;;;;;5062972;28;20110;-76
2023/04/06 11:08:08;;;;;;;30.92;22.10;;;12.50;52.50;;;;;;5080871;28;20067;-76
2023/04/06 11:10:34;;;;;;;34.33;24.77;;;12.50;52.80;;;;;;5079630;28;20517;-76
2023/04/06 11:13:00;;;;;;;34.63;24.48;;;12.30;51.50;;;;;;5096404;28;20086;-75
2023/04/06 11:15:25;;;;;;;32.85;23.50;;;12.20;51.80;;;;;;5097086;28;20154;-76
2023/04/06 11:17:51;;;;;;;36.53;24.55;;;12.10;51.90;;;;;;5062545;28;20136;-76
2023/04/06 11:20:19;;;;;;;35.58;24.42;;;12.30;52.60;;;;;;5096646;28;20714;-75
2023/04/06 11:22:52;;;;;;;39.30;26.38;;;12.30;51.70;;;;;;5078147;28;20052;-76
2023/04/06 11:25:18;;;;;;;36.03;25.67;;;12.30;51.40;;;;;;5079777;28;20031;-76
2023/04/06 11:27:46;;;;;;;34.97;25.90;;;12.30;51.50;;;;;;5061282;28;20043;-76
2023/04/06 11:30:12;;;;;;;34.92;25.90;;;12.50;51.80;;;;;;5077007;28;20126;-76
2023/04/06 11:32:45;;;;;;;38.25;26.58;;;12.70;52.20;;;;;;5095236;28;20051;-76
2023/04/06 11:35:23;;;;;;;34.35;25.58;;;12.70;51.50;;;;;;5095941;28;20259;-75
2023/04/06 11:37:50;;;;;;;32.35;24.13;;;12.50;50.60;;;;;;5078951;28;20048;-75
2023/04/06 11:40:20;;;;;;;38.50;26.80;;;12.50;51.40;;;;;;5094776;28;20402;-76
2023/04/06 11:43:00;;;;;;;36.35;25.48;;;12.60;51.90;;;;;;5092645;28;20544;-75
2023/04/06 11:45:26;;;;;;;35.72;24.60;;;12.60;51.90;;;;;;5079258;28;20108;-76
2023/04/06 11:47:57;;;;;;;37.70;26.15;;;12.50;52.20;;;;;;5061289;28;20056;-76
2023/04/06 11:50:23;;;;;;;36.60;24.67;;;12.50;51.90;;;;;;5096633;28;20039;-76
2023/04/06 11:53:02;;;;;;;36.17;24.13;;;12.30;51.50;;;;;;5094779;28;20058;-76
2023/04/06 11:55:28;;;;;;;35.40;24.75;;;12.30;51.50;;;;;;5098153;28;20051;-76
2023/04/06 11:57:54;;;;;;;32.58;23.00;;;12.30;52.20;;;;;;5060730;28;20039;-76
2023/04/06 12:00:21;;;;;;;30.92;22.30;;;12.30;51.80;;;;;;5078596;28;20051;-76
2023/04/06 12:02:48;;;;;;;30.30;21.20;;;12.20;51.90;;;;;;5094252;28;20074;-76
2023/04/06 12:05:13;;;;;;;35.97;23.45;;;12.20;52.30;;;;;;5096787;28;20128;-76
2023/04/06 12:07:39;;;;;;;36.05;24.20;;;12.00;51.10;;;;;;5062680;28;20641;-76
2023/04/06 12:10:05;;;;;;;38.75;25.42;;;11.90;51.70;;;;;;5096681;28;20358;-76
2023/04/06 12:12:31;;;;;;;34.00;23.10;;;11.90;51.80;;;;;;5078268;28;20493;-75
2023/04/06 12:14:58;;;;;;;31.73;23.58;;;11.70;51.20;;;;;;5077734;28;20050;-76
2023/04/06 12:17:24;;;;;;;34.28;24.33;;;11.60;51.40;;;;;;5061882;28;20481;-75
2023/04/06 12:19:50;;;;;;;37.92;24.40;;;11.50;51.50;;;;;;5096741;28;20465;-75
2023/04/06 12:22:17;;;;;;;34.58;23.88;;;11.40;51.50;;;;;;5078415;28;20085;-75
2023/04/06 12:24:43;;;;;;;35.72;24.25;;;11.40;52.10;;;;;;5078707;28;20058;-75
2023/04/06 12:27:10;;;;;;;32.93;23.97;;;11.50;52.00;;;;;;5079923;28;20224;-75
2023/04/06 12:29:36;;;;;;;33.58;23.90;;;11.50;52.30;;;;;;5078736;28;20054;-75
2023/04/06 12:32:05;;;;;;;36.20;24.60;;;11.40;51.80;;;;;;5097177;28;20047;-74